Time;durP1;ratioP1;P1;durP2;ratioP2;P2;SDS_P1;SDS_P2;PMS_P1;PMS_P2;Temp;Humidity;BMP_temperature;BMP_pressure;BME280_temperature;BME280_humidity;BME280_pressure;Samples;Min_cycle;Max_cycle;Signal;HPM_P1;HPM_P2
2021/04/17 00:02:17;;;;;;;22.75;15.00;;;6.10;99.90;;;;;;4973026;28;20523;-86
2021/04/17 00:04:43;;;;;;;18.13;12.10;;;6.00;99.90;;;;;;4973029;28;20097;-85
2021/04/17 00:07:10;;;;;;;10.57;8.05;;;5.90;99.90;;;;;;4972382;28;20556;-86
2021/04/17 00:09:36;;;;;;;12.50;8.52;;;5.80;99.90;;;;;;4971923;28;20041;-85
2021/04/17 00:12:07;;;;;;;13.65;8.85;;;5.90;99.90;;;;;;4997275;28;20037;-86
2021/04/17 00:14:37;;;;;;;17.90;11.50;;;5.80;99.90;;;;;;5013118;28;20108;-86
2021/04/17 00:17:05;;;;;;;29.80;16.75;;;5.80;99.90;;;;;;5015903;28;20022;-86
2021/04/17 00:19:33;;;;;;;21.75;12.63;;;5.90;99.90;;;;;;5018164;28;20037;-86
2021/04/17 00:21:59;;;;;;;12.55;8.07;;;5.80;99.90;;;;;;5016301;28;20042;-86
2021/04/17 00:24:25;;;;;;;13.02;8.85;;;5.80;99.90;;;;;;5016432;28;20829;-85
2021/04/17 00:26:52;;;;;;;12.20;7.97;;;5.70;99.90;;;;;;5014682;28;20056;-85
2021/04/17 00:29:18;;;;;;;9.65;7.20;;;6.10;99.90;;;;;;5012478;28;20030;-86
2021/04/17 00:31:51;;;;;;;21.52;12.07;;;5.60;99.90;;;;;;5018285;28;20073;-86
2021/04/17 00:34:16;;;;;;;16.27;9.00;;;5.70;99.90;;;;;;5016033;28;20058;-85
2021/04/17 00:36:42;;;;;;;7.53;6.00;;;5.70;99.90;;;;;;5015908;28;20442;-85
2021/04/17 00:39:08;;;;;;;9.95;6.78;;;5.60;99.90;;;;;;5015413;28;20036;-85
2021/04/17 00:41:34;;;;;;;14.52;9.35;;;5.60;99.90;;;;;;5011444;28;20489;-86
2021/04/17 00:44:00;;;;;;;23.10;13.25;;;5.60;99.90;;;;;;5014814;28;20022;-86
2021/04/17 00:46:26;;;;;;;14.13;9.63;;;5.60;99.90;;;;;;5016872;28;20036;-85
2021/04/17 00:48:51;;;;;;;12.25;8.70;;;5.60;99.90;;;;;;5015669;28;20088;-85
2021/04/17 00:51:17;;;;;;;10.82;7.72;;;5.50;99.90;;;;;;5016229;28;20041;-85
2021/04/17 00:53:43;;;;;;;8.15;6.90;;;5.40;99.90;;;;;;5013462;28;20287;-86
2021/04/17 00:56:11;;;;;;;10.13;7.30;;;5.50;99.90;;;;;;5013594;28;20560;-85
2021/04/17 00:58:38;;;;;;;10.55;7.47;;;5.40;99.90;;;;;;5017700;28;20057;-85
2021/04/17 01:01:05;;;;;;;8.50;6.03;;;5.40;99.90;;;;;;5013978;28;20026;-85
2021/04/17 01:03:42;;;;;;;8.57;6.45;;;5.60;99.90;;;;;;5015830;28;20034;-86
2021/04/17 01:06:19;;;;;;;7.13;6.35;;;5.20;99.90;;;;;;5015422;28;20071;-85
2021/04/17 01:08:48;;;;;;;10.95;7.88;;;5.30;99.90;;;;;;5013992;28;20037;-85
2021/04/17 01:11:22;;;;;;;9.35;7.07;;;5.30;99.90;;;;;;5012264;28;20116;-85
2021/04/17 01:13:52;;;;;;;6.82;6.13;;;5.20;99.90;;;;;;5017112;28;20026;-85
2021/04/17 01:16:18;;;;;;;6.53;5.93;;;5.10;99.90;;;;;;5015218;28;20026;-86
2021/04/17 01:18:48;;;;;;;16.08;9.70;;;5.20;99.90;;;;;;5014765;28;20443;-85
2021/04/17 01:21:15;;;;;;;17.73;11.60;;;5.80;99.90;;;;;;5013434;28;20046;-85
2021/04/17 01:23:44;;;;;;;13.82;8.70;;;5.20;99.90;;;;;;5012887;28;20034;-85
2021/04/17 01:26:13;;;;;;;29.52;14.25;;;5.20;99.90;;;;;;5010296;28;20040;-85
2021/04/17 01:28:58;;;;;;;25.70;13.63;;;5.20;99.90;;;;;;5016923;28;20103;-85
2021/04/17 01:31:30;;;;;;;15.50;9.82;;;5.20;99.90;;;;;;5014296;28;20034;-85
2021/04/17 01:33:58;;;;;;;21.30;11.73;;;5.20;99.90;;;;;;5015182;28;20030;-85
2021/04/17 01:36:26;;;;;;;9.30;7.63;;;5.70;99.90;;;;;;5014453;28;20058;-85
2021/04/17 01:38:59;;;;;;;39.40;17.58;;;5.10;99.90;;;;;;5013051;28;20025;-85
2021/04/17 01:41:45;;;;;;;44.05;18.75;;;5.20;99.90;;;;;;4995592;28;20133;-85
2021/04/17 01:44:27;;;;;;;56.38;21.80;;;5.20;99.90;;;;;;5011870;28;20018;-85
2021/04/17 01:46:59;;;;;;;20.40;10.77;;;5.20;99.90;;;;;;5024882;28;20375;-85
2021/04/17 01:49:26;;;;;;;49.63;21.08;;;5.20;99.90;;;;;;5014461;28;20390;-85
2021/04/17 01:51:54;;;;;;;32.63;14.80;;;5.20;99.90;;;;;;5013214;28;20034;-85
2021/04/17 01:54:26;;;;;;;35.15;16.02;;;5.10;99.90;;;;;;5014640;28;20088;-85
2021/04/17 01:56:56;;;;;;;61.00;26.90;;;5.10;99.90;;;;;;5012655;28;20161;-85
2021/04/17 01:59:23;;;;;;;46.95;21.67;;;5.10;99.90;;;;;;5010153;28;20725;-85
2021/04/17 02:01:48;;;;;;;20.83;12.02;;;5.10;99.90;;;;;;5016518;28;20040;-85
2021/04/17 02:04:14;;;;;;;62.33;28.17;;;5.00;99.90;;;;;;5013295;28;20041;-85
2021/04/17 02:06:40;;;;;;;81.03;33.85;;;5.10;99.90;;;;;;5014116;28;20033;-85
2021/04/17 02:09:05;;;;;;;38.58;18.88;;;5.10;99.90;;;;;;5014612;28;20413;-85
2021/04/17 02:11:32;;;;;;;14.40;10.13;;;4.90;99.90;;;;;;5009798;28;20117;-85
2021/04/17 02:14:00;;;;;;;7.93;6.80;;;4.80;99.90;;;;;;5014637;28;20548;-85
2021/04/17 02:16:35;;;;;;;9.40;7.25;;;4.70;99.90;;;;;;5014977;28;20030;-85
2021/04/17 02:19:04;;;;;;;9.25;7.97;;;4.70;99.90;;;;;;5013221;28;20041;-85
2021/04/17 02:21:42;;;;;;;22.50;18.15;;;4.80;99.90;;;;;;5014382;28;20564;-84
2021/04/17 02:24:08;;;;;;;12.90;10.73;;;4.90;99.90;;;;;;5013974;28;20401;-85
2021/04/17 02:26:36;;;;;;;10.50;9.27;;;4.90;99.90;;;;;;5011705;28;20025;-85
2021/04/17 02:29:02;;;;;;;9.35;8.45;;;4.70;99.90;;;;;;5014142;28;20029;-85
2021/04/17 02:31:29;;;;;;;8.48;7.57;;;4.70;99.90;;;;;;5015314;28;20030;-85
2021/04/17 02:33:55;;;;;;;10.50;9.20;;;4.60;99.90;;;;;;5010673;28;20125;-85
2021/04/17 02:36:21;;;;;;;10.02;8.77;;;4.70;99.90;;;;;;5014277;28;20022;-85
2021/04/17 02:38:47;;;;;;;8.60;7.43;;;4.70;99.90;;;;;;5013960;28;20037;-85
2021/04/17 02:41:13;;;;;;;8.18;7.35;;;4.70;99.90;;;;;;5015227;28;20141;-85
2021/04/17 02:43:44;;;;;;;8.05;6.75;;;4.70;99.90;;;;;;5020544;28;20146;-85
2021/04/17 02:46:11;;;;;;;8.43;7.40;;;4.70;99.90;;;;;;5018331;28;20034;-85
2021/04/17 02:48:37;;;;;;;9.93;7.38;;;4.80;99.90;;;;;;5016435;28;20164;-85
2021/04/17 02:51:03;;;;;;;8.32;7.15;;;4.70;99.90;;;;;;5019144;28;20103;-85
2021/04/17 02:53:29;;;;;;;7.68;6.82;;;4.70;99.90;;;;;;5029756;28;20161;-86
2021/04/17 02:55:55;;;;;;;8.98;7.03;;;4.60;99.90;;;;;;5019213;28;20112;-84
2021/04/17 02:58:21;;;;;;;8.35;7.45;;;4.70;99.90;;;;;;5018474;28;20029;-85
2021/04/17 03:00:46;;;;;;;7.75;6.95;;;4.80;99.90;;;;;;5018456;28;20034;-85
2021/04/17 03:03:12;;;;;;;8.30;6.88;;;4.80;99.90;;;;;;5017599;28;20060;-85
2021/04/17 03:05:38;;;;;;;8.38;7.07;;;4.80;99.90;;;;;;5015519;28;20026;-85
2021/04/17 03:08:04;;;;;;;7.97;7.15;;;4.80;99.90;;;;;;5017091;28;20509;-85
2021/04/17 03:10:30;;;;;;;7.55;6.85;;;4.70;99.90;;;;;;5017633;28;20116;-85
2021/04/17 03:12:55;;;;;;;8.93;7.60;;;4.70;99.90;;;;;;5016595;28;20092;-85
2021/04/17 03:15:21;;;;;;;8.48;7.30;;;4.50;99.90;;;;;;5017585;28;20025;-85
2021/04/17 03:17:46;;;;;;;8.40;7.07;;;4.50;99.90;;;;;;5014482;28;20065;-85
2021/04/17 03:20:12;;;;;;;8.50;7.60;;;4.50;99.90;;;;;;5014918;28;20025;-84
2021/04/17 03:22:38;;;;;;;8.60;7.70;;;4.40;99.90;;;;;;5019537;28;20070;-85
2021/04/17 03:25:07;;;;;;;11.48;8.60;;;4.30;99.90;;;;;;5026943;28;20646;-85
2021/04/17 03:27:33;;;;;;;12.85;9.05;;;4.30;99.90;;;;;;5023684;28;20573;-85
2021/04/17 03:29:59;;;;;;;12.15;9.38;;;4.40;99.90;;;;;;5017351;28;20041;-85
2021/04/17 03:32:25;;;;;;;13.77;9.68;;;4.40;99.90;;;;;;5012732;28;20504;-84
2021/04/17 03:34:50;;;;;;;12.25;10.52;;;4.30;99.90;;;;;;5058373;28;20515;-85
2021/04/17 03:37:16;;;;;;;11.30;9.30;;;4.40;99.90;;;;;;5016018;28;20095;-85
2021/04/17 03:39:42;;;;;;;12.75;10.00;;;4.40;99.90;;;;;;5017692;28;20082;-85
2021/04/17 03:42:07;;;;;;;11.30;9.95;;;4.40;99.90;;;;;;5017374;28;20439;-85
2021/04/17 03:44:33;;;;;;;10.20;8.63;;;4.40;99.90;;;;;;5013844;28;20026;-85
2021/04/17 03:46:59;;;;;;;10.70;8.88;;;4.50;99.90;;;;;;5017513;28;20030;-85
2021/04/17 03:49:24;;;;;;;9.23;8.02;;;4.50;99.90;;;;;;5015304;28;20030;-85
2021/04/17 03:51:50;;;;;;;9.65;8.57;;;4.50;99.90;;;;;;5016882;28;20025;-85
2021/04/17 03:54:16;;;;;;;9.18;8.27;;;4.50;99.90;;;;;;5017075;28;20033;-85
2021/04/17 03:56:41;;;;;;;9.45;7.70;;;4.30;99.90;;;;;;5013584;28;20411;-85
2021/04/17 03:59:07;;;;;;;8.60;7.80;;;4.30;99.90;;;;;;5015350;28;20033;-85
2021/04/17 04:01:33;;;;;;;9.68;8.68;;;4.30;99.90;;;;;;5017994;28;20052;-85
2021/04/17 04:04:00;;;;;;;9.40;7.82;;;4.30;99.90;;;;;;5016893;28;20045;-85
2021/04/17 04:06:26;;;;;;;8.77;7.72;;;4.20;99.90;;;;;;5016786;28;20029;-85
2021/04/17 04:08:51;;;;;;;9.02;8.13;;;4.20;99.90;;;;;;5016184;28;20033;-86
2021/04/17 04:11:18;;;;;;;9.32;8.32;;;4.10;99.90;;;;;;5013357;28;20041;-85
2021/04/17 04:13:43;;;;;;;9.55;8.00;;;4.10;99.90;;;;;;5018850;28;20029;-85
2021/04/17 04:16:09;;;;;;;9.52;8.52;;;4.10;99.90;;;;;;5014552;28;20030;-85
2021/04/17 04:18:34;;;;;;;10.10;8.30;;;4.20;99.90;;;;;;5016485;28;20585;-85
2021/04/17 04:21:00;;;;;;;9.40;8.38;;;4.10;99.90;;;;;;5016577;28;20041;-85
2021/04/17 04:23:26;;;;;;;10.05;8.38;;;4.00;99.90;;;;;;5012259;28;20122;-85
2021/04/17 04:25:51;;;;;;;10.68;8.50;;;4.00;99.90;;;;;;5018483;28;20033;-85
2021/04/17 04:28:17;;;;;;;10.27;8.60;;;3.80;99.90;;;;;;5014899;28;20040;-85
2021/04/17 04:30:42;;;;;;;9.85;8.50;;;4.00;99.90;;;;;;5015463;28;20145;-84
2021/04/17 04:33:08;;;;;;;11.80;8.88;;;4.00;99.90;;;;;;5016103;28;20080;-85
2021/04/17 04:35:34;;;;;;;10.48;8.40;;;3.90;99.90;;;;;;5011858;28;20038;-85
2021/04/17 04:37:59;;;;;;;10.68;8.75;;;3.90;99.90;;;;;;5016492;28;20067;-84
2021/04/17 04:40:25;;;;;;;10.30;8.75;;;3.90;99.90;;;;;;5016953;28;20041;-85
2021/04/17 04:42:51;;;;;;;10.40;8.65;;;3.90;99.90;;;;;;5016051;28;20030;-85
2021/04/17 04:45:16;;;;;;;9.70;8.50;;;3.90;99.90;;;;;;5016087;28;20025;-85
2021/04/17 04:47:42;;;;;;;11.95;9.07;;;3.90;99.90;;;;;;5014179;28;20084;-85
2021/04/17 04:50:09;;;;;;;10.98;8.85;;;3.90;99.90;;;;;;5013908;28;20025;-85
2021/04/17 04:52:35;;;;;;;10.02;9.00;;;3.90;99.90;;;;;;5017641;28;20037;-85
2021/04/17 04:55:01;;;;;;;10.20;8.55;;;3.90;99.90;;;;;;5014383;28;20434;-86
2021/04/17 04:57:26;;;;;;;10.95;8.45;;;3.80;99.90;;;;;;5015399;28;20120;-84
2021/04/17 04:59:52;;;;;;;9.93;8.93;;;3.90;99.90;;;;;;5013621;28;20026;-86
2021/04/17 05:02:18;;;;;;;9.57;8.55;;;3.90;99.90;;;;;;5010524;28;20104;-84
2021/04/17 05:04:43;;;;;;;11.77;9.85;;;3.70;99.90;;;;;;5017950;28;20033;-86
2021/04/17 05:07:09;;;;;;;11.75;9.48;;;3.70;99.90;;;;;;5014143;28;20030;-85
2021/04/17 05:09:35;;;;;;;11.98;9.95;;;3.70;99.90;;;;;;5014463;28;20018;-86
2021/04/17 05:12:01;;;;;;;11.90;9.98;;;3.70;99.90;;;;;;5015797;28;20493;-85
2021/04/17 05:14:26;;;;;;;11.05;9.88;;;3.80;99.90;;;;;;5009888;28;20026;-86
2021/04/17 05:16:52;;;;;;;10.00;8.63;;;3.80;99.90;;;;;;5017337;28;20042;-85
2021/04/17 05:19:17;;;;;;;13.68;9.70;;;3.90;99.90;;;;;;5015522;28;20029;-85
2021/04/17 05:21:43;;;;;;;10.93;9.63;;;3.90;99.90;;;;;;5015720;28;20042;-85
2021/04/17 05:24:09;;;;;;;10.55;9.15;;;3.90;99.90;;;;;;5015410;28;20029;-86
2021/04/17 05:26:35;;;;;;;12.68;9.90;;;4.00;99.90;;;;;;5011825;28;20026;-85
2021/04/17 05:29:00;;;;;;;26.92;16.17;;;3.90;99.90;;;;;;5015598;28;20029;-86
2021/04/17 05:31:26;;;;;;;68.13;41.17;;;4.00;99.90;;;;;;5015928;28;20034;-87
2021/04/17 05:33:54;;;;;;;45.15;28.50;;;4.10;99.90;;;;;;5012480;28;20033;-86
2021/04/17 05:36:20;;;;;;;39.88;26.00;;;4.10;99.90;;;;;;5015533;28;20101;-85
2021/04/17 05:38:46;;;;;;;39.45;24.55;;;4.20;99.90;;;;;;5013293;28;20048;-88
2021/04/17 05:41:11;;;;;;;44.70;27.05;;;4.20;99.90;;;;;;5012300;28;20030;-86
2021/04/17 05:43:37;;;;;;;85.03;50.40;;;4.30;99.90;;;;;;5016694;28;20401;-87
2021/04/17 05:46:02;;;;;;;37.92;25.27;;;4.30;99.90;;;;;;5013663;28;20030;-87
2021/04/17 05:48:28;;;;;;;22.67;16.38;;;4.30;99.90;;;;;;5015191;28;20084;-88
2021/04/17 05:50:54;;;;;;;38.65;26.83;;;4.30;99.90;;;;;;5014478;28;20014;-85
2021/04/17 05:53:20;;;;;;;13.80;11.57;;;4.30;99.90;;;;;;5010478;28;20064;-86
2021/04/17 05:55:45;;;;;;;11.77;9.80;;;4.50;99.90;;;;;;5015305;28;20088;-88
2021/04/17 05:58:11;;;;;;;10.05;9.05;;;4.80;99.90;;;;;;5013620;28;20064;-87
2021/04/17 06:00:36;;;;;;;10.63;9.48;;;4.20;99.90;;;;;;5013685;28;20030;-85
2021/04/17 06:03:04;;;;;;;10.73;9.45;;;4.30;99.90;;;;;;5013064;28;20032;-86
2021/04/17 06:05:30;;;;;;;10.80;9.27;;;4.40;99.90;;;;;;5009625;28;20030;-86
2021/04/17 06:07:55;;;;;;;10.95;9.40;;;4.30;99.90;;;;;;5015130;28;20508;-85
2021/04/17 06:10:21;;;;;;;14.05;12.40;;;4.30;99.90;;;;;;5013558;28;20463;-86
2021/04/17 06:12:46;;;;;;;11.80;9.77;;;4.50;99.90;;;;;;5010531;28;20037;-86
2021/04/17 06:15:13;;;;;;;10.32;8.52;;;4.50;99.90;;;;;;5014317;28;20078;-85
2021/04/17 06:17:39;;;;;;;9.75;8.75;;;4.50;99.90;;;;;;5012036;28;20030;-86
2021/04/17 06:20:06;;;;;;;11.70;9.43;;;4.30;99.90;;;;;;5013424;28;20037;-86
2021/04/17 06:22:31;;;;;;;11.85;9.35;;;4.40;99.90;;;;;;5014999;28;20054;-86
2021/04/17 06:24:58;;;;;;;10.48;9.38;;;4.40;99.90;;;;;;5013302;28;20461;-85
2021/04/17 06:27:23;;;;;;;12.18;9.40;;;4.40;99.90;;;;;;5013245;28;20022;-86
2021/04/17 06:29:49;;;;;;;11.52;8.95;;;4.50;99.90;;;;;;5013205;28;20036;-86
2021/04/17 06:32:14;;;;;;;10.82;9.20;;;4.60;99.90;;;;;;5010502;28;20517;-87
2021/04/17 06:34:40;;;;;;;11.23;9.95;;;4.40;99.90;;;;;;5015091;28;20025;-87
2021/04/17 06:37:06;;;;;;;11.45;9.63;;;4.50;99.90;;;;;;5013891;28;20029;-86
2021/04/17 06:39:31;;;;;;;10.70;9.43;;;4.50;99.90;;;;;;5013576;28;20426;-85
2021/04/17 06:42:03;;;;;;;11.82;9.00;;;4.50;99.90;;;;;;5012176;28;20037;-85
2021/04/17 06:44:31;;;;;;;10.70;9.25;;;4.80;99.90;;;;;;4993499;28;20112;-86
2021/04/17 06:46:56;;;;;;;10.90;8.82;;;4.90;99.90;;;;;;5014845;28;20520;-86
2021/04/17 06:49:25;;;;;;;13.63;10.02;;;4.70;99.90;;;;;;5012495;28;20050;-86
2021/04/17 06:51:52;;;;;;;10.43;9.43;;;4.80;99.90;;;;;;5012593;28;20140;-85
2021/04/17 06:54:21;;;;;;;10.18;9.20;;;5.00;99.90;;;;;;5012704;28;20026;-85
2021/04/17 06:56:50;;;;;;;13.70;9.55;;;5.00;99.90;;;;;;5011350;28;20041;-87
2021/04/17 06:59:16;;;;;;;10.60;9.50;;;5.00;99.90;;;;;;5010918;28;20114;-86
2021/04/17 07:01:42;;;;;;;10.50;9.40;;;5.00;99.90;;;;;;5015915;28;20029;-87
2021/04/17 07:04:08;;;;;;;10.57;9.48;;;5.00;99.90;;;;;;5011774;28;20037;-87
2021/04/17 07:06:34;;;;;;;10.90;9.75;;;5.00;99.90;;;;;;5013684;28;20052;-85
2021/04/17 07:09:00;;;;;;;11.75;9.73;;;4.90;99.90;;;;;;5024492;28;20057;-87
2021/04/17 07:11:26;;;;;;;10.38;9.35;;;5.30;99.90;;;;;;5008230;28;20123;-87
2021/04/17 07:14:05;;;;;;;11.52;9.13;;;5.40;99.90;;;;;;5015803;28;20566;-86
2021/04/17 07:16:30;;;;;;;13.23;9.63;;;5.70;99.90;;;;;;5015107;28;20034;-86
2021/04/17 07:18:56;;;;;;;13.23;10.13;;;5.40;99.90;;;;;;5017820;28;20125;-87
2021/04/17 07:21:26;;;;;;;14.15;10.25;;;5.20;99.90;;;;;;5021640;28;20089;-86
2021/04/17 07:23:51;;;;;;;11.27;10.07;;;5.10;99.90;;;;;;5010623;28;20048;-88
2021/04/17 07:26:23;;;;;;;12.57;9.90;;;5.10;99.90;;;;;;5013351;28;20030;-87
2021/04/17 07:28:55;;;;;;;11.57;9.35;;;5.40;99.90;;;;;;5019169;28;20082;-87
2021/04/17 07:31:23;;;;;;;11.27;10.07;;;5.50;99.90;;;;;;5014788;28;20030;-87
2021/04/17 07:33:48;;;;;;;10.93;9.80;;;5.80;99.90;;;;;;5017366;28;20021;-87
2021/04/17 07:36:18;;;;;;;12.70;9.60;;;5.50;99.90;;;;;;5017297;28;20521;-87
2021/04/17 07:38:44;;;;;;;11.23;9.38;;;5.60;99.90;;;;;;5013100;28;20042;-87
2021/04/17 07:41:20;;;;;;;10.45;9.18;;;5.70;99.90;;;;;;5014499;28;20548;-87
2021/04/17 07:43:53;;;;;;;10.55;9.45;;;5.90;99.90;;;;;;5018284;28;20042;-86
2021/04/17 07:46:40;;;;;;;11.52;9.75;;;6.40;99.90;;;;;;5017808;28;20409;-87
2021/04/17 07:49:15;;;;;;;12.05;9.75;;;6.50;99.90;;;;;;5017604;28;20033;-87
2021/04/17 07:51:56;;;;;;;11.20;9.82;;;6.40;99.90;;;;;;5015697;28;20041;-87
2021/04/17 07:54:22;;;;;;;11.63;9.38;;;6.60;99.90;;;;;;5016824;28;20412;-85
2021/04/17 07:56:47;;;;;;;11.10;9.93;;;6.40;99.90;;;;;;5015437;28;20018;-86
2021/04/17 07:59:13;;;;;;;10.45;9.43;;;6.40;99.90;;;;;;5013983;28;20034;-86
2021/04/17 08:01:42;;;;;;;12.63;9.73;;;6.50;99.90;;;;;;5019328;28;20030;-85
2021/04/17 08:04:08;;;;;;;10.60;9.50;;;6.60;99.90;;;;;;5016603;28;20044;-85
2021/04/17 08:06:36;;;;;;;11.05;9.48;;;6.60;99.90;;;;;;5016396;28;20053;-86
2021/04/17 08:09:02;;;;;;;10.85;9.52;;;6.80;99.90;;;;;;5014728;28;20044;-85
2021/04/17 08:11:30;;;;;;;11.43;9.70;;;6.90;99.90;;;;;;5011596;28;20030;-85
2021/04/17 08:13:57;;;;;;;12.77;9.40;;;7.20;99.90;;;;;;5017745;28;20034;-90
2021/04/17 08:16:22;;;;;;;10.00;9.00;;;7.30;99.90;;;;;;5018371;28;20029;-87
2021/04/17 08:18:48;;;;;;;10.68;9.52;;;7.00;99.90;;;;;;5016608;28;20087;-88
2021/04/17 08:21:17;;;;;;;11.18;9.35;;;7.00;99.90;;;;;;5007429;28;20046;-88
2021/04/17 08:23:45;;;;;;;10.38;9.27;;;7.00;99.90;;;;;;5028040;28;20046;-87
2021/04/17 08:26:11;;;;;;;11.88;9.38;;;7.30;99.90;;;;;;5012722;28;20138;-87
2021/04/17 08:28:49;;;;;;;11.43;9.57;;;7.20;99.90;;;;;;5018041;28;20105;-88
2021/04/17 08:31:29;;;;;;;11.52;9.95;;;7.50;99.90;;;;;;5014790;28;20164;-87
2021/04/17 08:34:05;;;;;;;10.57;9.32;;;7.50;99.90;;;;;;5016808;28;20033;-87
2021/04/17 08:36:37;;;;;;;10.43;9.40;;;7.40;99.90;;;;;;5015370;28;20029;-87
2021/04/17 08:39:04;;;;;;;10.55;8.82;;;7.40;99.90;;;;;;5016088;28;20071;-86
2021/04/17 08:41:44;;;;;;;10.57;9.48;;;7.80;99.90;;;;;;5011353;28;20106;-87
2021/04/17 08:44:31;;;;;;;10.27;9.27;;;7.90;99.90;;;;;;5013184;28;20044;-87
2021/04/17 08:47:01;;;;;;;10.40;9.30;;;7.80;99.90;;;;;;5016753;28;20558;-87
2021/04/17 08:49:33;;;;;;;10.50;9.40;;;7.40;99.90;;;;;;5016069;28;20030;-88
2021/04/17 08:52:22;;;;;;;11.23;10.07;;;7.70;99.90;;;;;;5015324;28;20057;-88
2021/04/17 08:54:53;;;;;;;11.00;9.00;;;7.60;99.90;;;;;;5015770;28;20116;-87
2021/04/17 08:57:19;;;;;;;11.35;9.18;;;7.90;99.90;;;;;;5015896;28;20065;-88
2021/04/17 08:59:57;;;;;;;10.48;8.93;;;7.90;99.90;;;;;;5012152;28;20058;-87
2021/04/17 09:02:25;;;;;;;9.95;8.95;;;7.70;99.90;;;;;;4995849;28;20030;-87
2021/04/17 09:05:08;;;;;;;10.40;9.27;;;7.90;99.90;;;;;;5017875;28;20088;-86
2021/04/17 09:07:36;;;;;;;11.43;9.05;;;8.00;99.90;;;;;;5017188;28;20124;-86
2021/04/17 09:10:24;;;;;;;9.93;8.90;;;8.10;99.90;;;;;;5013917;28;20034;-86
2021/04/17 09:13:19;;;;;;;11.13;9.15;;;8.20;99.90;;;;;;5015430;28;20104;-86
2021/04/17 09:16:09;;;;;;;11.93;9.13;;;8.70;99.90;;;;;;5013169;28;20312;-85
2021/04/17 09:21:21;;;;;;;10.15;9.15;;;8.80;99.90;;;;;;5013550;28;20041;-84
2021/04/17 09:23:53;;;;;;;9.88;8.63;;;9.10;99.90;;;;;;5012188;28;20037;-85
2021/04/17 09:26:44;;;;;;;10.52;9.13;;;9.90;99.90;;;;;;5011326;28;20061;-85
2021/04/17 09:29:13;;;;;;;11.00;8.88;;;9.30;99.90;;;;;;5023015;28;20033;-85
2021/04/17 09:31:39;;;;;;;10.32;9.30;;;9.50;99.90;;;;;;5017419;28;20030;-84
2021/04/17 09:34:07;;;;;;;10.60;9.55;;;9.60;99.90;;;;;;5014589;28;20091;-84
2021/04/17 09:36:33;;;;;;;10.60;9.50;;;9.60;99.90;;;;;;5014738;28;20029;-84
2021/04/17 09:39:00;;;;;;;9.98;8.95;;;10.00;99.90;;;;;;5015478;28;20020;-84
2021/04/17 09:41:45;;;;;;;9.70;8.70;;;9.60;99.90;;;;;;5010399;28;20030;-84
2021/04/17 09:44:11;;;;;;;10.25;9.15;;;9.60;99.90;;;;;;5025144;28;20029;-85
2021/04/17 09:46:37;;;;;;;10.00;9.00;;;9.90;99.90;;;;;;5016330;28;20029;-86
2021/04/17 09:49:03;;;;;;;11.10;8.85;;;10.00;99.90;;;;;;5013754;28;20406;-85
2021/04/17 09:51:29;;;;;;;12.32;10.02;;;10.20;99.90;;;;;;5014579;28;20032;-86
2021/04/17 09:54:06;;;;;;;10.38;9.30;;;10.00;99.90;;;;;;5014005;28;20557;-86
2021/04/17 09:56:36;;;;;;;11.48;9.40;;;10.50;99.90;;;;;;4996943;28;20033;-86
2021/04/17 09:59:15;;;;;;;12.90;9.75;;;10.40;99.90;;;;;;5015269;28;20025;-86
2021/04/17 10:01:52;;;;;;;10.60;9.50;;;9.90;99.90;;;;;;5015203;28;20026;-86
2021/04/17 10:04:17;;;;;;;11.55;9.25;;;10.40;99.90;;;;;;5014183;28;20034;-85
2021/04/17 10:06:43;;;;;;;19.75;9.40;;;11.20;99.90;;;;;;5012824;28;20613;-85
2021/04/17 10:09:14;;;;;;;10.13;9.13;;;11.10;99.90;;;;;;5014803;28;20037;-84
2021/04/17 10:11:42;;;;;;;10.90;9.77;;;10.80;99.90;;;;;;5012016;28;20093;-86
2021/04/17 10:14:10;;;;;;;9.73;8.77;;;10.60;99.90;;;;;;5012433;28;20109;-86
2021/04/17 10:16:36;;;;;;;48.47;12.45;;;11.30;99.90;;;;;;5014310;28;20529;-86
2021/04/17 10:19:07;;;;;;;8.90;8.00;;;11.80;99.90;;;;;;5012585;28;20026;-85
2021/04/17 10:21:34;;;;;;;10.15;9.15;;;11.70;99.90;;;;;;5013970;28;20399;-86
2021/04/17 10:24:25;;;;;;;10.38;9.27;;;12.30;99.90;;;;;;5014017;28;20120;-86
2021/04/17 10:26:55;;;;;;;9.52;8.52;;;12.20;99.90;;;;;;5012532;28;20355;-84
2021/04/17 10:29:31;;;;;;;10.45;8.63;;;12.50;99.90;;;;;;5010575;28;20080;-87
2021/04/17 10:32:20;;;;;;;10.75;8.90;;;13.30;99.90;;;;;;5023776;28;20030;-87
2021/04/17 10:34:53;;;;;;;9.05;8.15;;;16.60;99.90;;;;;;5015697;28;20430;-87
2021/04/17 10:37:24;;;;;;;10.18;9.10;;;19.90;99.90;;;;;;5013127;28;20026;-87
2021/04/17 10:40:07;;;;;;;11.77;10.57;;;19.50;99.90;;;;;;5013351;28;20026;-87
2021/04/17 10:42:54;;;;;;;11.70;10.50;;;20.30;99.90;;;;;;5014175;28;20041;-88
2021/04/17 10:45:30;;;;;;;11.55;10.35;;;17.00;99.90;;;;;;5014565;28;20024;-87
2021/04/17 10:48:03;;;;;;;10.13;9.13;;;20.30;99.90;;;;;;5013662;28;20648;-88
2021/04/17 10:50:32;;;;;;;10.75;9.75;;;21.70;99.90;;;;;;4993430;28;20030;-87
2021/04/17 10:53:04;;;;;;;10.70;9.70;;;21.70;99.90;;;;;;5015287;28;20486;-87
2021/04/17 10:55:39;;;;;;;10.40;9.43;;;21.40;99.90;;;;;;5026013;28;20053;-90
2021/04/17 10:58:06;;;;;;;12.77;11.45;;;17.70;99.90;;;;;;5025469;28;20038;-91
2021/04/17 11:00:35;;;;;;;11.63;10.52;;;16.00;99.90;;;;;;5024838;28;20033;-90
2021/04/17 11:03:03;;;;;;;12.98;11.68;;;18.30;99.90;;;;;;5018054;28;20041;-89
2021/04/17 11:05:33;;;;;;;12.05;10.85;;;23.00;99.90;;;;;;5011410;28;20018;-89
2021/04/17 11:08:01;;;;;;;11.95;10.85;;;23.90;99.90;;;;;;5018718;28;20026;-88
2021/04/17 11:10:32;;;;;;;13.38;12.05;;;18.80;99.90;;;;;;5017325;28;20026;-86
2021/04/17 11:12:58;;;;;;;10.82;9.82;;;16.50;99.90;;;;;;5017601;28;20057;-85
2021/04/17 11:15:29;;;;;;;10.75;9.70;;;22.30;99.90;;;;;;5017414;28;20056;-85
2021/04/17 11:18:33;;;;;;;11.80;10.70;;;25.70;99.90;;;;;;5015073;28;20040;-84
2021/04/17 11:21:02;;;;;;;13.23;12.02;;;25.10;99.90;;;;;;5005282;28;20523;-85
2021/04/17 11:23:33;;;;;;;12.85;11.68;;;19.00;99.90;;;;;;5012441;28;20046;-86
2021/04/17 11:26:00;;;;;;;11.88;10.73;;;16.70;99.90;;;;;;5015639;28;20104;-87
2021/04/17 11:28:26;;;;;;;14.20;12.18;;;21.30;99.90;;;;;;5016810;28;20037;-86
2021/04/17 11:30:53;;;;;;;13.40;12.20;;;21.20;99.90;;;;;;5015783;28;20038;-86
2021/04/17 11:33:19;;;;;;;12.27;10.90;;;23.90;99.90;;;;;;5015956;28;20034;-85
2021/04/17 11:35:45;;;;;;;12.68;11.38;;;25.50;99.90;;;;;;5015033;28;20022;-89
2021/04/17 11:38:11;;;;;;;12.32;11.23;;;28.60;99.90;;;;;;5031606;28;20044;-89
2021/04/17 11:40:37;;;;;;;12.95;11.70;;;24.20;99.90;;;;;;5033661;28;20018;-87
2021/04/17 11:43:02;;;;;;;13.23;11.90;;;20.80;99.90;;;;;;5016892;28;20096;-87
2021/04/17 11:45:28;;;;;;;13.00;11.90;;;23.70;99.90;;;;;;5016056;28;20026;-87
2021/04/17 11:47:53;;;;;;;12.80;11.50;;;23.50;99.90;;;;;;5015861;28;20037;-87
2021/04/17 11:50:19;;;;;;;12.60;11.40;;;23.50;99.90;;;;;;5012533;28;20042;-85
2021/04/17 11:52:45;;;;;;;14.10;12.77;;;22.80;99.90;;;;;;5016686;28;20034;-85
2021/04/17 11:55:11;;;;;;;13.57;12.38;;;18.40;99.90;;;;;;5015902;28;20034;-85
2021/04/17 11:57:36;;;;;;;13.73;12.52;;;16.90;99.90;;;;;;5016793;28;20045;-85
2021/04/17 12:00:04;;;;;;;13.38;12.07;;;21.20;99.90;;;;;;5016212;28;20405;-85
2021/04/17 12:02:31;;;;;;;12.48;11.23;;;18.60;99.90;;;;;;5011713;28;20037;-85
2021/04/17 12:04:56;;;;;;;12.98;11.88;;;22.80;99.90;;;;;;5017734;28;20482;-85
2021/04/17 12:07:22;;;;;;;13.68;12.32;;;23.90;99.90;;;;;;5017604;28;20021;-85
2021/04/17 12:09:48;;;;;;;12.93;11.73;;;26.10;99.90;;;;;;5016338;28;20030;-84
2021/04/17 12:12:13;;;;;;;15.23;12.18;;;25.20;99.90;;;;;;5016108;28;20051;-85
2021/04/17 12:14:39;;;;;;;13.23;11.93;;;22.10;99.90;;;;;;5013797;28;20490;-85
2021/04/17 12:17:05;;;;;;;13.05;11.75;;;23.90;99.90;;;;;;5015904;28;20066;-85
2021/04/17 12:19:32;;;;;;;13.98;12.57;;;26.40;99.90;;;;;;5017629;28;20065;-85
2021/04/17 12:21:58;;;;;;;12.60;11.40;;;27.00;99.90;;;;;;5016249;28;20050;-85
2021/04/17 12:24:24;;;;;;;13.43;12.23;;;27.50;99.90;;;;;;5014889;28;20038;-85
2021/04/17 12:26:50;;;;;;;12.82;11.82;;;27.00;99.90;;;;;;5015019;28;20022;-86
2021/04/17 12:29:16;;;;;;;12.90;11.80;;;29.10;99.90;;;;;;5013003;28;20045;-85
2021/04/17 12:31:42;;;;;;;12.90;11.55;;;26.60;99.90;;;;;;5018485;28;20030;-85
2021/04/17 12:34:07;;;;;;;12.50;11.50;;;27.60;99.90;;;;;;5016330;28;20037;-85
2021/04/17 12:36:33;;;;;;;14.52;12.93;;;26.70;99.90;;;;;;5015973;28;20100;-85
2021/04/17 12:38:58;;;;;;;12.80;11.70;;;26.00;99.90;;;;;;5016561;28;20048;-85
2021/04/17 12:41:25;;;;;;;12.85;11.73;;;27.20;99.90;;;;;;4995439;28;20014;-85
2021/04/17 12:43:50;;;;;;;12.88;11.57;;;27.60;99.90;;;;;;5017338;28;20037;-85
2021/04/17 12:46:16;;;;;;;13.63;12.38;;;27.40;99.90;;;;;;5016078;28;20026;-86
2021/04/17 12:48:41;;;;;;;13.73;12.43;;;26.70;99.90;;;;;;5015823;28;20038;-85
2021/04/17 12:51:07;;;;;;;13.38;12.23;;;24.90;99.90;;;;;;5016293;28;20037;-85
2021/04/17 12:53:33;;;;;;;12.88;11.77;;;25.80;99.90;;;;;;5010799;28;20112;-85